createdAt,value
2018-11-14T00:00:03.914Z,102145.11
2018-11-14T00:02:31.315Z,102148.20
2018-11-14T00:04:58.898Z,102151.09
2018-11-14T00:07:26.423Z,102153.03
2018-11-14T00:09:53.866Z,102151.52
2018-11-14T00:12:21.479Z,102149.47
2018-11-14T00:14:48.923Z,102147.97
2018-11-14T00:17:16.433Z,102144.27
2018-11-14T00:19:44.059Z,102153.22
2018-11-14T00:22:11.482Z,102147.94
2018-11-14T00:24:38.975Z,102145.70
2018-11-14T00:27:06.507Z,102140.36
2018-11-14T00:29:34.216Z,102138.42
2018-11-14T00:32:01.832Z,102138.90
2018-11-14T00:34:29.477Z,102134.86
2018-11-14T00:36:57.359Z,102138.13
2018-11-14T00:39:24.531Z,102142.81
2018-11-14T00:41:52.022Z,102145.77
2018-11-14T00:44:19.512Z,102153.23
2018-11-14T00:46:47.019Z,102150.96
2018-11-14T00:49:14.467Z,102155.14
2018-11-14T00:51:42.068Z,102162.30
2018-11-14T00:54:09.648Z,102170.72
2018-11-14T00:56:37.148Z,102177.25
2018-11-14T00:59:04.983Z,102180.77
2018-11-14T01:01:32.483Z,102180.37
2018-11-14T01:03:59.881Z,102178.55
2018-11-14T01:06:27.421Z,102178.52
2018-11-14T01:08:54.819Z,102177.72
2018-11-14T01:11:22.291Z,102176.55
2018-11-14T01:13:49.754Z,102178.98
2018-11-14T01:16:17.248Z,102172.78
2018-11-14T01:18:45.060Z,102171.80
2018-11-14T01:21:12.600Z,102180.01
2018-11-14T01:23:40.155Z,102170.13
2018-11-14T01:26:07.655Z,102170.28
2018-11-14T01:28:35.146Z,102172.20
2018-11-14T01:31:02.605Z,102172.45
2018-11-14T01:33:30.043Z,102177.39
2018-11-14T01:35:57.804Z,102181.27
2018-11-14T01:38:24.974Z,102177.86
2018-11-14T01:40:52.535Z,102166.09
2018-11-14T01:43:19.952Z,102166.53
2018-11-14T01:45:47.377Z,102167.41
2018-11-14T01:48:14.962Z,102165.81
2018-11-14T01:50:42.500Z,102160.44
2018-11-14T01:53:09.901Z,102162.63
2018-11-14T01:55:37.378Z,102158.52
2018-11-14T01:58:05.755Z,102153.07
2018-11-14T02:00:33.347Z,102155.25
2018-11-14T02:03:00.929Z,102151.15
2018-11-14T02:05:28.341Z,102154.48
2018-11-14T02:07:55.741Z,102150.34
2018-11-14T02:10:23.275Z,102141.38
2018-11-14T02:12:50.755Z,102147.77
2018-11-14T02:15:22.527Z,102143.34
2018-11-14T02:17:52.574Z,102139.79
2018-11-14T02:20:21.717Z,102140.62
2018-11-14T02:22:49.129Z,102142.02
2018-11-14T02:25:17.908Z,102136.56
2018-11-14T02:27:45.658Z,102140.17
2018-11-14T02:30:16.369Z,102145.59
2018-11-14T02:32:44.023Z,102138.95
2018-11-14T02:35:11.636Z,102141.92
2018-11-14T02:37:40.286Z,102144.28
2018-11-14T02:40:10.131Z,102143.38
2018-11-14T02:42:37.759Z,102139.86
2018-11-14T02:45:05.901Z,102140.34
2018-11-14T02:47:33.624Z,102138.59
2018-11-14T02:50:01.111Z,102132.67
2018-11-14T02:52:28.509Z,102128.86
2018-11-14T02:54:55.938Z,102133.75
2018-11-14T02:57:23.708Z,102126.25
2018-11-14T02:59:51.275Z,102135.80
2018-11-14T03:02:18.748Z,102127.99
2018-11-14T03:04:46.148Z,102128.90
2018-11-14T03:07:13.569Z,102133.22
2018-11-14T03:09:41.064Z,102133.28
2018-11-14T03:12:08.559Z,102136.55
2018-11-14T03:14:35.943Z,102139.26
2018-11-14T03:17:03.464Z,102133.67
2018-11-14T03:19:30.881Z,102138.18
2018-11-14T03:21:58.329Z,102137.38
2018-11-14T03:24:25.781Z,102136.47
2018-11-14T03:26:53.283Z,102131.79
2018-11-14T03:29:20.686Z,102127.11
2018-11-14T03:31:48.166Z,102132.00
2018-11-14T03:34:15.717Z,102132.40
2018-11-14T03:36:43.157Z,102131.79
2018-11-14T03:39:10.575Z,102133.27
2018-11-14T03:41:38.075Z,102134.78
2018-11-14T03:44:06.035Z,102131.00
2018-11-14T03:46:33.513Z,102131.53
2018-11-14T03:49:00.917Z,102127.72
2018-11-14T03:51:28.337Z,102127.89
2018-11-14T03:53:56.024Z,102130.23
2018-11-14T03:56:23.549Z,102130.27
2018-11-14T03:58:50.989Z,102131.97
2018-11-14T04:01:18.401Z,102128.45
2018-11-14T04:03:45.837Z,102126.31
2018-11-14T04:06:13.350Z,102114.20
2018-11-14T04:08:40.828Z,102108.55
2018-11-14T04:11:08.333Z,102112.90
2018-11-14T04:13:35.830Z,102102.62
2018-11-14T04:16:03.350Z,102107.01
2018-11-14T04:18:30.821Z,102100.52
2018-11-14T04:20:58.258Z,102100.65
2018-11-14T04:23:25.703Z,102096.00
2018-11-14T04:25:53.177Z,102101.98
2018-11-14T04:28:20.553Z,102101.36
2018-11-14T04:30:48.201Z,102096.10
2018-11-14T04:33:15.568Z,102099.21
2018-11-14T04:35:42.957Z,102094.66
2018-11-14T04:38:10.443Z,102109.14
2018-11-14T04:40:37.897Z,102114.09
2018-11-14T04:43:05.317Z,102106.81
2018-11-14T04:45:32.854Z,102106.70
2018-11-14T04:48:00.349Z,102106.39
2018-11-14T04:50:27.778Z,102110.30
2018-11-14T04:52:55.660Z,102113.65
2018-11-14T04:55:24.222Z,102104.44
2018-11-14T04:57:51.632Z,102101.28
2018-11-14T05:00:20.515Z,102104.48
2018-11-14T05:02:48.749Z,102102.81
2018-11-14T05:05:17.647Z,102105.46
2018-11-14T05:07:45.134Z,102111.70
2018-11-14T05:10:15.164Z,102109.11
2018-11-14T05:12:42.660Z,102105.23
2018-11-14T05:15:12.763Z,102097.95
2018-11-14T05:17:40.245Z,102091.84
2018-11-14T05:20:09.487Z,102093.27
2018-11-14T05:22:36.957Z,102095.59
2018-11-14T05:25:04.799Z,102098.80
2018-11-14T05:27:32.463Z,102098.20
2018-11-14T05:29:59.945Z,102092.80
2018-11-14T05:32:27.659Z,102097.20
2018-11-14T05:34:55.153Z,102091.41
2018-11-14T05:37:22.657Z,102090.41
2018-11-14T05:39:50.206Z,102092.02
2018-11-14T05:42:17.585Z,102087.97
2018-11-14T05:44:45.161Z,102085.75
2018-11-14T05:47:12.597Z,102075.63
2018-11-14T05:49:40.171Z,102075.51
2018-11-14T05:52:07.963Z,102078.99
2018-11-14T05:54:35.445Z,102079.04
2018-11-14T05:57:02.881Z,102084.66
2018-11-14T05:59:30.407Z,102081.30
2018-11-14T06:01:57.845Z,102084.75
2018-11-14T06:04:25.237Z,102084.75
2018-11-14T06:06:52.817Z,102087.36
2018-11-14T06:09:20.223Z,102081.66
2018-11-14T06:11:47.709Z,102083.27
2018-11-14T06:14:15.278Z,102081.05
2018-11-14T06:16:42.699Z,102091.95
2018-11-14T06:19:10.215Z,102091.08
2018-11-14T06:21:37.800Z,102090.25
2018-11-14T06:24:05.273Z,102092.03
2018-11-14T06:26:32.726Z,102091.69
2018-11-14T06:29:00.205Z,102095.22
2018-11-14T06:31:27.849Z,102097.84
2018-11-14T06:33:55.383Z,102099.14
2018-11-14T06:36:22.937Z,102100.33
2018-11-14T06:38:50.395Z,102102.34
2018-11-14T06:41:17.917Z,102097.77
2018-11-14T06:43:45.447Z,102099.50
2018-11-14T06:46:13.018Z,102105.80
2018-11-14T06:48:40.495Z,102106.10
2018-11-14T06:51:09.077Z,102109.86
2018-11-14T06:53:36.480Z,102102.39
2018-11-14T06:56:04.206Z,102113.61
2018-11-14T06:58:31.804Z,102120.06
2018-11-14T07:00:59.202Z,102114.74
2018-11-14T07:03:26.677Z,102125.48
2018-11-14T07:05:55.911Z,102119.72
2018-11-14T07:08:23.406Z,102113.95
2018-11-14T07:10:50.963Z,102125.25
2018-11-14T07:13:18.381Z,102113.61
2018-11-14T07:15:45.906Z,102119.20
2018-11-14T07:18:13.306Z,102128.66
2018-11-14T07:20:42.362Z,102119.70
2018-11-14T07:23:09.792Z,102104.55
2018-11-14T07:25:37.326Z,102109.51
2018-11-14T07:28:04.954Z,102104.61
2018-11-14T07:30:33.178Z,102104.77
2018-11-14T07:33:03.211Z,102102.13
2018-11-14T07:35:30.792Z,102100.67
2018-11-14T07:38:35.830Z,102092.76
2018-11-14T07:41:04.938Z,102096.95
2018-11-14T07:43:33.339Z,102091.85
2018-11-14T07:46:00.785Z,102089.80
2018-11-14T07:48:28.629Z,102089.14
2018-11-14T07:50:56.062Z,102091.27
2018-11-14T07:53:23.684Z,102095.78
2018-11-14T07:55:51.147Z,102106.28
2018-11-14T07:58:18.636Z,102104.91
2018-11-14T08:00:46.299Z,102106.06
2018-11-14T08:03:13.775Z,102096.54
2018-11-14T08:05:41.279Z,102098.77
2018-11-14T08:08:08.771Z,102110.31
2018-11-14T08:10:36.242Z,102105.45
2018-11-14T08:13:03.903Z,102101.52
2018-11-14T08:15:31.415Z,102102.23
2018-11-14T08:17:59.011Z,102092.95
2018-11-14T08:20:26.675Z,102091.05
2018-11-14T08:22:54.492Z,102091.08
2018-11-14T08:25:22.247Z,102094.70
2018-11-14T08:27:49.751Z,102095.20
2018-11-14T08:30:17.281Z,102094.81
2018-11-14T08:32:44.950Z,102097.72
2018-11-14T08:35:12.488Z,102100.89
2018-11-14T08:37:40.617Z,102098.10
2018-11-14T08:40:09.549Z,102102.97
2018-11-14T08:42:37.593Z,102105.72
2018-11-14T08:45:08.378Z,102105.98
2018-11-14T08:47:36.464Z,102108.93
2018-11-14T08:50:05.115Z,102111.56
2018-11-14T08:52:32.742Z,102107.36
2018-11-14T08:55:00.242Z,102110.38
2018-11-14T08:57:27.718Z,102109.31
2018-11-14T08:59:55.152Z,102110.16
2018-11-14T09:02:22.856Z,102116.98
2018-11-14T09:04:50.350Z,102109.33
2018-11-14T09:07:18.017Z,102105.65
2018-11-14T09:09:45.656Z,102108.34
2018-11-14T09:12:13.278Z,102105.11
2018-11-14T09:14:40.777Z,102110.19
2018-11-14T09:17:08.806Z,102111.92
2018-11-14T09:19:36.258Z,102111.03
2018-11-14T09:22:03.990Z,102114.84
2018-11-14T09:24:31.674Z,102115.02
2018-11-14T09:26:59.611Z,102116.96
2018-11-14T09:29:27.157Z,102113.86
2018-11-14T09:31:54.617Z,102112.63
2018-11-14T09:34:22.143Z,102119.39
2018-11-14T09:36:49.715Z,102118.39
2018-11-14T09:39:17.162Z,102118.52
2018-11-14T09:41:44.619Z,102117.84
2018-11-14T09:44:12.064Z,102123.22
2018-11-14T09:46:39.544Z,102122.83
2018-11-14T09:49:07.020Z,102127.16
2018-11-14T09:51:34.784Z,102116.14
2018-11-14T09:54:02.783Z,102115.38
2018-11-14T09:56:30.444Z,102118.33
2018-11-14T09:58:57.914Z,102106.80
2018-11-14T10:01:25.444Z,102105.48
2018-11-14T10:03:52.989Z,102109.11
2018-11-14T10:06:20.475Z,102103.74
2018-11-14T10:08:48.101Z,102108.88
2018-11-14T10:11:15.570Z,102101.97
2018-11-14T10:13:43.362Z,102102.66
2018-11-14T10:16:10.982Z,102093.72
2018-11-14T10:18:38.439Z,102089.70
2018-11-14T10:21:06.173Z,102088.44
2018-11-14T10:23:33.690Z,102094.48
2018-11-14T10:26:01.234Z,102096.80
2018-11-14T10:28:28.898Z,102090.57
2018-11-14T10:30:56.562Z,102078.81
2018-11-14T10:33:24.095Z,102082.92
2018-11-14T10:35:51.670Z,102077.43
2018-11-14T10:38:19.156Z,102076.91
2018-11-14T10:40:46.654Z,102073.41
2018-11-14T10:43:14.154Z,102066.35
2018-11-14T10:45:41.790Z,102073.84
2018-11-14T10:48:09.470Z,102059.84
2018-11-14T10:50:36.918Z,102064.62
2018-11-14T10:53:04.897Z,102052.77
2018-11-14T10:55:32.847Z,102055.80
2018-11-14T10:58:00.439Z,102057.31
2018-11-14T11:00:33.780Z,102055.05
2018-11-14T11:03:07.510Z,102054.39
2018-11-14T11:05:40.637Z,102054.38
2018-11-14T11:08:14.005Z,102057.27
2018-11-14T11:10:46.926Z,102065.78
2018-11-14T11:13:20.165Z,102067.13
2018-11-14T11:15:53.466Z,102062.91
2018-11-14T11:18:25.502Z,102057.57
2018-11-14T11:20:53.235Z,102052.59
2018-11-14T11:23:20.903Z,102056.23
2018-11-14T11:25:48.435Z,102059.47
2018-11-14T11:28:15.962Z,102059.26
2018-11-14T11:30:43.561Z,102049.13
2018-11-14T11:33:11.051Z,102043.72
2018-11-14T11:35:38.559Z,102044.77
2018-11-14T11:38:06.396Z,102046.84
2018-11-14T11:40:34.349Z,102039.08
2018-11-14T11:43:02.711Z,102039.28
2018-11-14T11:45:30.343Z,102032.47
2018-11-14T11:47:57.769Z,102035.06
2018-11-14T11:50:25.376Z,102021.65
2018-11-14T11:52:52.902Z,102024.88
2018-11-14T11:55:20.479Z,102016.15
2018-11-14T11:57:48.155Z,102018.59
2018-11-14T12:00:16.498Z,102019.28
2018-11-14T12:02:44.189Z,102012.95
2018-11-14T12:05:12.899Z,102012.23
2018-11-14T12:07:41.353Z,102015.54
2018-11-14T12:10:10.194Z,102016.86
2018-11-14T12:12:37.744Z,102008.48
2018-11-14T12:15:07.002Z,102003.50
2018-11-14T12:17:34.613Z,101999.60
2018-11-14T12:20:02.070Z,101996.30
2018-11-14T12:22:29.566Z,102003.21
2018-11-14T12:24:57.136Z,101997.33
2018-11-14T12:27:24.782Z,102001.45
2018-11-14T12:29:52.789Z,102000.92
2018-11-14T12:32:20.266Z,101996.98
2018-11-14T12:34:47.909Z,101993.96
2018-11-14T12:37:15.438Z,101990.70
2018-11-14T12:39:42.927Z,101985.67
2018-11-14T12:42:10.422Z,101991.70
2018-11-14T12:44:38.040Z,101985.34
2018-11-14T12:47:05.444Z,101984.20
2018-11-14T12:49:32.874Z,101982.12
2018-11-14T12:52:00.338Z,101978.38
2018-11-14T12:54:27.767Z,101978.31
2018-11-14T12:56:55.378Z,101982.64
2018-11-14T12:59:23.039Z,101975.50
2018-11-14T13:01:50.957Z,101972.66
2018-11-14T13:04:18.546Z,101971.63
2018-11-14T13:06:46.142Z,101961.58
2018-11-14T13:09:13.589Z,101962.90
2018-11-14T13:11:41.189Z,101954.23
2018-11-14T13:14:08.740Z,101951.19
2018-11-14T13:16:36.231Z,101946.72
2018-11-14T13:19:04.122Z,101951.61
2018-11-14T13:21:31.623Z,101943.78
2018-11-14T13:23:59.062Z,101951.30
2018-11-14T13:26:26.698Z,101939.14
2018-11-14T13:28:54.129Z,101944.89
2018-11-14T13:31:21.734Z,101944.79
2018-11-14T13:33:49.224Z,101941.95
2018-11-14T13:36:16.677Z,101946.20
2018-11-14T13:38:44.259Z,101942.78
2018-11-14T13:41:11.845Z,101938.77
2018-11-14T13:43:39.458Z,101939.63
2018-11-14T13:46:06.935Z,101942.02
2018-11-14T13:48:34.468Z,101935.89
2018-11-14T13:51:02.235Z,101929.00
2018-11-14T13:53:29.708Z,101925.98
2018-11-14T13:55:57.223Z,101929.94
2018-11-14T13:58:24.806Z,101924.29
2018-11-14T14:00:52.383Z,101923.14
2018-11-14T14:03:19.939Z,101927.16
2018-11-14T14:05:47.507Z,101926.71
2018-11-14T14:08:14.963Z,101920.20
2018-11-14T14:10:42.507Z,101919.51
2018-11-14T14:13:09.897Z,101913.45
2018-11-14T14:15:37.355Z,101908.36
2018-11-14T14:18:05.047Z,101898.21
2018-11-14T14:20:32.524Z,101897.54
2018-11-14T14:22:59.953Z,101888.24
2018-11-14T14:25:27.629Z,101885.93
2018-11-14T14:27:55.267Z,101893.45
2018-11-14T14:30:29.458Z,101888.81
2018-11-14T14:32:56.896Z,101894.20
2018-11-14T14:35:24.337Z,101892.59
2018-11-14T14:37:52.687Z,101895.41
2018-11-14T14:40:21.640Z,101901.64
2018-11-14T14:42:49.530Z,101908.92
2018-11-14T14:45:18.842Z,101906.05
2018-11-14T14:47:46.410Z,101906.77
2018-11-14T14:50:14.954Z,101909.47
2018-11-14T14:52:43.707Z,101901.27
2018-11-14T14:55:16.358Z,101901.72
2018-11-14T14:57:45.268Z,101903.75
2018-11-14T15:00:14.976Z,101914.41
2018-11-14T15:02:43.047Z,101908.45
2018-11-14T15:05:11.741Z,101913.56
2018-11-14T15:07:39.624Z,101918.99
2018-11-14T15:10:09.811Z,101915.80
2018-11-14T15:12:37.430Z,101925.84
2018-11-14T15:15:05.038Z,101925.92
2018-11-14T15:17:32.656Z,101935.73
2018-11-14T15:20:02.178Z,101936.64
2018-11-14T15:22:29.728Z,101944.27
2018-11-14T15:24:57.675Z,101942.95
2018-11-14T15:27:25.379Z,101943.75
2018-11-14T15:29:52.809Z,101937.56
2018-11-14T15:32:20.306Z,101936.91
2018-11-14T15:34:48.008Z,101938.13
2018-11-14T15:37:15.577Z,101937.78
2018-11-14T15:39:49.903Z,101940.78
2018-11-14T15:42:17.398Z,101942.78
2018-11-14T15:44:44.821Z,101943.98
2018-11-14T15:47:12.375Z,101946.40
2018-11-14T15:49:39.842Z,101946.22
2018-11-14T15:52:07.490Z,101944.97
2018-11-14T15:54:35.440Z,101940.59
2018-11-14T15:57:03.212Z,101943.09
2018-11-14T15:59:30.986Z,101941.92
2018-11-14T16:01:58.527Z,101946.84
2018-11-14T16:04:25.938Z,101945.27
2018-11-14T16:06:53.564Z,101941.00
2018-11-14T16:09:21.131Z,101948.03
2018-11-14T16:11:48.810Z,101946.72
2018-11-14T16:14:16.355Z,101945.32
2018-11-14T16:16:43.899Z,101946.77
2018-11-14T16:19:11.438Z,101946.16
2018-11-14T16:21:39.028Z,101948.58
2018-11-14T16:24:06.734Z,101951.97
2018-11-14T16:26:34.278Z,101955.80
2018-11-14T16:29:01.711Z,101950.66
2018-11-14T16:31:29.230Z,101952.69
2018-11-14T16:33:56.603Z,101950.88
2018-11-14T16:36:24.023Z,101948.54
2018-11-14T16:38:51.494Z,101950.88
2018-11-14T16:41:19.214Z,101960.00
2018-11-14T16:43:46.699Z,101957.91
2018-11-14T16:46:14.372Z,101958.30
2018-11-14T16:48:41.975Z,101950.51
2018-11-14T16:51:10.921Z,101962.16
2018-11-14T16:53:38.393Z,101954.88
2018-11-14T16:56:05.983Z,101943.91
2018-11-14T16:58:33.399Z,101948.09
2018-11-14T17:01:00.851Z,101943.82
2018-11-14T17:03:28.638Z,101941.40
2018-11-14T17:05:56.159Z,101946.25
2018-11-14T17:08:24.011Z,101937.16
2018-11-14T17:10:51.547Z,101938.91
2018-11-14T17:13:19.123Z,101939.01
2018-11-14T17:15:46.655Z,101929.53
2018-11-14T17:18:14.324Z,101923.84
2018-11-14T17:20:41.895Z,101926.72
2018-11-14T17:23:09.354Z,101929.80
2018-11-14T17:25:36.850Z,101920.78
2018-11-14T17:28:04.674Z,101925.05
2018-11-14T17:30:32.255Z,101930.42
2018-11-14T17:32:59.897Z,101917.72
2018-11-14T17:35:27.387Z,101914.91
2018-11-14T17:37:54.864Z,101915.27
2018-11-14T17:40:25.146Z,101915.11
2018-11-14T17:42:53.131Z,101913.14
2018-11-14T17:45:22.841Z,101923.49
2018-11-14T17:47:50.586Z,101923.58
2018-11-14T17:50:23.584Z,101926.94
2018-11-14T17:52:52.247Z,101930.26
2018-11-14T17:55:20.678Z,101932.17
2018-11-14T17:57:48.119Z,101920.38
2018-11-14T18:00:18.827Z,101919.82
2018-11-14T18:02:46.845Z,101924.14
2018-11-14T18:05:15.820Z,101927.42
2018-11-14T18:07:44.166Z,101922.29
2018-11-14T18:10:13.579Z,101920.31
2018-11-14T18:12:41.636Z,101930.16
2018-11-14T18:15:10.248Z,101927.39
2018-11-14T18:17:38.186Z,101922.42
2018-11-14T18:20:07.557Z,101924.36
2018-11-14T18:22:35.361Z,101936.98
2018-11-14T18:25:06.534Z,101924.75
2018-11-14T18:27:34.189Z,101921.73
2018-11-14T18:30:02.049Z,101918.60
2018-11-14T18:32:29.550Z,101922.95
2018-11-14T18:34:57.049Z,101922.54
2018-11-14T18:37:24.721Z,101916.45
2018-11-14T18:39:52.268Z,101916.39
2018-11-14T18:42:19.988Z,101919.41
2018-11-14T18:44:47.430Z,101907.38
2018-11-14T18:47:15.123Z,101910.06
2018-11-14T18:49:42.606Z,101906.28
2018-11-14T18:52:10.238Z,101905.45
2018-11-14T18:54:37.687Z,101906.06
2018-11-14T18:57:05.624Z,101900.52
2018-11-14T18:59:33.163Z,101905.55
2018-11-14T19:02:00.647Z,101905.02
2018-11-14T19:04:28.181Z,101899.92
2018-11-14T19:06:55.695Z,101899.47
2018-11-14T19:09:23.201Z,101892.91
2018-11-14T19:11:50.862Z,101896.59
2018-11-14T19:14:18.373Z,101895.15
2018-11-14T19:16:45.976Z,101891.66
2018-11-14T19:19:13.645Z,101886.79
2018-11-14T19:21:41.114Z,101895.05
2018-11-14T19:24:08.575Z,101894.45
2018-11-14T19:26:36.130Z,101888.30
2018-11-14T19:29:04.074Z,101893.64
2018-11-14T19:31:31.520Z,101893.22
2018-11-14T19:33:59.036Z,101898.48
2018-11-14T19:36:26.488Z,101899.12
2018-11-14T19:38:53.953Z,101888.52
2018-11-14T19:41:21.518Z,101892.17
2018-11-14T19:43:49.035Z,101886.45
2018-11-14T19:46:16.522Z,101892.70
2018-11-14T19:48:44.104Z,101896.20
2018-11-14T19:51:11.688Z,101894.80
2018-11-14T19:53:39.170Z,101890.85
2018-11-14T19:56:06.764Z,101893.25
2018-11-14T19:58:34.442Z,101890.15
2018-11-14T20:01:01.966Z,101896.78
2018-11-14T20:03:29.562Z,101887.42
2018-11-14T20:05:57.194Z,101896.84
2018-11-14T20:08:24.844Z,101890.38
2018-11-14T20:10:52.374Z,101885.53
2018-11-14T20:13:20.064Z,101892.70
2018-11-14T20:15:47.507Z,101890.56
2018-11-14T20:18:14.994Z,101888.99
2018-11-14T20:20:42.483Z,101883.23
2018-11-14T20:23:10.058Z,101896.66
2018-11-14T20:25:37.658Z,101882.33
2018-11-14T20:28:05.376Z,101886.38
2018-11-14T20:30:35.469Z,101884.73
2018-11-14T20:33:04.591Z,101882.30
2018-11-14T20:35:32.285Z,101882.52
2018-11-14T20:38:00.127Z,101878.03
2018-11-14T20:40:27.967Z,101879.98
2018-11-14T20:42:55.920Z,101886.84
2018-11-14T20:45:25.868Z,101872.48
2018-11-14T20:47:53.406Z,101889.47
2018-11-14T20:50:21.965Z,101884.67
2018-11-14T20:52:52.172Z,101892.33
2018-11-14T20:55:19.770Z,101890.66
2018-11-14T20:57:47.392Z,101886.05
2018-11-14T21:00:21.112Z,101885.34
2018-11-14T21:02:49.503Z,101894.34
2018-11-14T21:05:17.062Z,101891.14
2018-11-14T21:07:44.667Z,101887.87
2018-11-14T21:10:14.237Z,101891.53
2018-11-14T21:12:42.189Z,101888.48
2018-11-14T21:15:11.968Z,101898.83
2018-11-14T21:17:39.747Z,101895.92
2018-11-14T21:20:08.050Z,101897.13
2018-11-14T21:22:35.817Z,101902.55
2018-11-14T21:25:03.966Z,101896.11
2018-11-14T21:27:31.402Z,101905.94
2018-11-14T21:29:59.413Z,101896.27
2018-11-14T21:32:26.869Z,101906.04
2018-11-14T21:34:54.517Z,101903.03
2018-11-14T21:37:22.012Z,101898.16
2018-11-14T21:39:49.450Z,101902.61
2018-11-14T21:42:17.101Z,101900.81
2018-11-14T21:44:44.653Z,101898.34
2018-11-14T21:52:16.778Z,101894.84
2018-11-14T21:54:44.221Z,101895.49
2018-11-14T21:57:11.641Z,101895.62
2018-11-14T21:59:39.158Z,101894.97
2018-11-14T22:02:06.625Z,101899.96
2018-11-14T22:04:34.133Z,101900.69
2018-11-14T22:07:01.675Z,101895.14
2018-11-14T22:09:29.175Z,101894.22
2018-11-14T22:11:56.759Z,101902.38
2018-11-14T22:14:24.245Z,101905.92
2018-11-14T22:16:51.805Z,101901.77
2018-11-14T22:19:19.241Z,101907.13
2018-11-14T22:21:46.715Z,101916.70
2018-11-14T22:24:14.125Z,101907.52
2018-11-14T22:26:41.601Z,101915.36
2018-11-14T22:29:09.100Z,101916.13
2018-11-14T22:31:36.775Z,101915.27
2018-11-14T22:34:04.861Z,101910.11
2018-11-14T22:36:32.393Z,101911.22
2018-11-14T22:38:59.807Z,101920.75
2018-11-14T22:41:27.393Z,101919.50
2018-11-14T22:43:54.980Z,101916.28
2018-11-14T22:46:22.384Z,101920.37
2018-11-14T22:48:49.826Z,101909.21
2018-11-14T22:51:17.317Z,101924.63
2018-11-14T22:53:44.811Z,101924.63
2018-11-14T22:56:12.293Z,101929.30
2018-11-14T22:58:39.755Z,101926.47
2018-11-14T23:01:07.233Z,101921.47
2018-11-14T23:03:34.715Z,101928.50
2018-11-14T23:06:02.302Z,101920.70
2018-11-14T23:08:29.711Z,101924.31
2018-11-14T23:10:57.321Z,101920.50
2018-11-14T23:13:24.901Z,101918.09
2018-11-14T23:15:52.383Z,101916.89
2018-11-14T23:18:19.789Z,101916.77
2018-11-14T23:20:47.347Z,101918.03
2018-11-14T23:23:14.870Z,101918.34
2018-11-14T23:25:42.273Z,101914.35
2018-11-14T23:28:10.661Z,101920.52
2018-11-14T23:30:38.102Z,101913.24
2018-11-14T23:33:05.581Z,101913.44
2018-11-14T23:35:33.021Z,101914.09
2018-11-14T23:38:02.828Z,101918.09
2018-11-14T23:40:30.621Z,101919.59
2018-11-14T23:42:58.095Z,101926.02
2018-11-14T23:45:26.347Z,101926.93
2018-11-14T23:47:53.889Z,101920.30
2018-11-14T23:50:23.813Z,101922.59
2018-11-14T23:52:52.527Z,101919.67
2018-11-14T23:55:20.810Z,101923.33
2018-11-14T23:57:48.546Z,101916.64
